New Castle, Pennsylvania
Current Conditions -  °F | °C
As of 8:47 PM on Wednesday 26 Nov 2014 (Local Time) from KBVI Reporting Station
Overcast Overcast  
Wind Chill: 32°   Ceiling: 3300
Heat Index: 32°   Visibility: 7mi
Dew Point: 32°   Wind: 0mph
Humidity: 100%   Direction: NA
Pressure: 30"   Gusts: NA
Location:  41°N, 80.35°W
Report Text: KBVI 270147Z 00000KT 7SM SCT011 OVC033 00/00 A3000 RMK LAST
Loading
Personal Weather Stations






























Interactive Weather Map New forecast layout! Learn more

10-Day Weather Forecast

Advertisements
Track Severe Weather on mobile